createdAt,value
2018-09-20T00:04:12.572Z,1010.6
2018-09-20T00:14:26.752Z,1010.5
2018-09-20T00:24:41.196Z,1010.4
2018-09-20T00:34:56.693Z,1010.3
2018-09-20T00:45:11.298Z,1010.2
2018-09-20T00:55:26.331Z,1010.2
2018-09-20T01:05:41.905Z,1010.2
2018-09-20T01:15:56.256Z,1010.2
2018-09-20T01:26:11.982Z,1010.2
2018-09-20T01:36:26.862Z,1010.2
2018-09-20T01:46:41.934Z,1010.2
2018-09-20T01:56:56.188Z,1010.2
2018-09-20T02:07:10.645Z,1010.2
2018-09-20T02:17:26.029Z,1010.3
2018-09-20T02:27:40.002Z,1010.4
2018-09-20T02:37:55.579Z,1010.4
2018-09-20T02:48:10.988Z,1010.3
2018-09-20T02:58:24.917Z,1010.2
2018-09-20T03:08:39.992Z,1010.2
2018-09-20T03:18:55.433Z,1010.2
2018-09-20T03:29:09.678Z,1010.2
2018-09-20T03:39:23.654Z,1010.3
2018-09-20T03:49:38.569Z,1010.2
2018-09-20T03:59:54.263Z,1010.3
2018-09-20T04:10:08.690Z,1010.3
2018-09-20T04:20:22.505Z,1010.3
2018-09-20T04:30:36.257Z,1010.2
2018-09-20T04:40:50.167Z,1010.3
2018-09-20T04:51:04.835Z,1010.3
2018-09-20T05:01:22.273Z,1010.3
2018-09-20T05:11:34.745Z,1010.2
2018-09-20T05:21:49.220Z,1010.3
2018-09-20T05:32:04.709Z,1010.3
2018-09-20T05:42:18.578Z,1010.2
2018-09-20T05:52:33.327Z,1010.2
2018-09-20T06:02:48.028Z,1010.3
2018-09-20T06:13:03.292Z,1010.2
2018-09-20T06:23:17.418Z,1010.2
2018-09-20T06:43:48.884Z,1010.3
2018-09-20T06:54:03.406Z,1010.3
2018-09-20T07:04:17.567Z,1010.3
2018-09-20T07:14:31.538Z,1010.2
2018-09-20T07:24:46.288Z,1010.2
2018-09-20T07:35:00.964Z,1010.2
2018-09-20T07:45:15.227Z,1010.4
2018-09-20T07:55:30.658Z,1010.4
2018-09-20T08:05:46.226Z,1010.3
2018-09-20T08:16:00.080Z,1010.3
2018-09-20T08:26:15.782Z,1010.4
2018-09-20T08:36:30.450Z,1010.6
2018-09-20T08:46:44.686Z,1010.3
2018-09-20T08:56:59.228Z,1010.2
2018-09-20T09:07:14.397Z,1010.2
2018-09-20T09:17:29.883Z,1010
2018-09-20T09:27:45.577Z,1009.9
2018-09-20T09:38:00.911Z,1009.8
2018-09-20T09:48:14.745Z,1009.9
2018-09-20T09:58:30.471Z,1009.9
2018-09-20T10:08:44.733Z,1009.7
2018-09-20T10:18:59.710Z,1009.8
2018-09-20T10:29:14.124Z,1009.7
2018-09-20T10:39:29.514Z,1009.6
2018-09-20T10:49:44.151Z,1009.7
2018-09-20T10:59:59.459Z,1009.7
2018-09-20T11:10:13.820Z,1009.6
2018-09-20T11:20:29.393Z,1009.6
2018-09-20T11:30:44.732Z,1009.5
2018-09-20T11:40:59.388Z,1009.4
2018-09-20T11:51:14.468Z,1009.4
2018-09-20T12:01:30.956Z,1009.3
2018-09-20T12:11:45.068Z,1009
2018-09-20T12:21:59.460Z,1009
2018-09-20T12:32:14.953Z,1008.9
2018-09-20T12:42:29.851Z,1008.6
2018-09-20T12:52:43.950Z,1008.6
2018-09-20T13:02:58.227Z,1008.3
2018-09-20T13:13:13.691Z,1008.2
2018-09-20T13:23:28.681Z,1008.2
2018-09-20T13:33:44.433Z,1008.3
2018-09-20T13:44:00.308Z,1008.1
2018-09-20T13:54:15.369Z,1008
2018-09-20T14:04:30.413Z,1007.9
2018-09-20T14:14:45.496Z,1007.7
2018-09-20T14:25:00.762Z,1007.6
2018-09-20T14:35:16.627Z,1007.5
2018-09-20T14:45:31.264Z,1007.4
2018-09-20T14:55:47.093Z,1007.3
2018-09-20T15:06:02.816Z,1007.2
2018-09-20T15:16:18.580Z,1007
2018-09-20T15:26:32.478Z,1006.9
2018-09-20T15:36:47.475Z,1006.8
2018-09-20T15:47:01.542Z,1006.7
2018-09-20T15:57:16.413Z,1006.5
2018-09-20T16:07:30.547Z,1006.4
2018-09-20T16:17:46.531Z,1006.3
2018-09-20T16:28:00.758Z,1006.1
2018-09-20T16:38:15.634Z,1005.9
2018-09-20T16:48:29.878Z,1005.7
2018-09-20T16:58:44.789Z,1005.7
2018-09-20T17:08:59.190Z,1005.6
2018-09-20T17:19:14.622Z,1005.4
2018-09-20T17:29:29.586Z,1005.3
2018-09-20T17:39:44.009Z,1005.2
2018-09-20T17:49:58.480Z,1005.1
2018-09-20T18:00:13.561Z,1005
2018-09-20T18:10:27.332Z,1005
2018-09-20T18:20:42.171Z,1005
2018-09-20T18:30:57.833Z,1004.9
2018-09-20T18:41:12.545Z,1004.9
2018-09-20T18:51:27.145Z,1004.9
2018-09-20T19:01:41.168Z,1004.8
2018-09-20T19:11:56.146Z,1004.7
2018-09-20T19:22:11.281Z,1004.6
2018-09-20T19:32:26.274Z,1004.5
2018-09-20T19:42:41.021Z,1004.4
2018-09-20T19:52:54.813Z,1004.3
2018-09-20T20:03:09.124Z,1004.2
2018-09-20T20:13:23.995Z,1004.1
2018-09-20T20:23:38.097Z,1003.9
2018-09-20T20:33:51.884Z,1003.9
2018-09-20T20:44:05.914Z,1003.8
2018-09-20T20:54:21.690Z,1003.8
2018-09-20T21:04:35.374Z,1003.6
2018-09-20T21:14:49.288Z,1003.5
2018-09-20T21:25:03.340Z,1003.4
2018-09-20T21:35:17.107Z,1003.3
2018-09-20T21:45:32.763Z,1003
2018-09-20T21:55:48.018Z,1003
2018-09-20T22:06:02.833Z,1002.8
2018-09-20T22:16:17.560Z,1002.6
2018-09-20T22:26:32.210Z,1002.4
2018-09-20T22:36:45.932Z,1002.2
2018-09-20T22:46:59.755Z,1002
2018-09-20T22:57:14.022Z,1001.9
2018-09-20T23:07:29.773Z,1001.8
2018-09-20T23:17:43.592Z,1001.7
2018-09-20T23:27:57.708Z,1001.6
2018-09-20T23:38:12.095Z,1001.5
2018-09-20T23:48:26.099Z,1001.4
2018-09-20T23:58:40.047Z,1001.3
